Gibsonia, PA (15044)

5:26 PM EST on February 05, 2016 (GMT -0500)
APRSWXNET | | Change Station
CLOSE
Current Station
Personal Weather Station
Location: Gibsonia, PA
Elevation: 1148 ft
Nearby Weather Stations

Elev 1148 ft 40.60 °N, 79.91 °W | Updated 31 minutes ago

Partly Cloudy
Partly Cloudy
33 °F
Feels Like 33 °F
N
1
Wind Variable Wind from West
Gusts 0.0 mph

Today
High -- | Low -- °F
--% Chance of Precip.
Yesterday
High -- | Low -- °F
Precip. -- in
Pressure 30.37 in
Visibility 10.0 miles
Clouds Clear
Windchill 33 °F
Dew Point 20 °F
Humidity 58%
Rainfall in
Snow Depth Not available.
7:26 AM 5:42 PM
Waning Crescent, 9% visible
METAR KBTP 052215Z AUTO 26003KT 10SM CLR 00/M09 A3037 RMK AO1
Pressure 30.37 in
Visibility 10.0 miles
Clouds Clear
Windchill 33 °F
Dew Point 20 °F
Humidity 58%
Rainfall in
Snow Depth Not available.
7:26 AM 5:42 PM
Waning Crescent, 9% visible
METAR KBTP 052215Z AUTO 26003KT 10SM CLR 00/M09 A3037 RMK AO1

10-Day Weather Forecast

Almanac

Astronomy

Feb. 05, 2016 Rise Set
Actual Time
Civil Twilight
Nautical Twilight
Astronomical Twilight
Moon
Length of Visible Light
Length of Day
Tomorrow will be .
, % of the Moon is Illuminated

Today's Extremes

State Highs State Lows

Community

WunderPhotos

Upload Photos

1,890,878 photos uploaded!

WunderBlog® & News

Nearby

Air Quality

  Air Quality AQ Index Pollutant
Not available.

Snow Depth

Station Depth Elevation

Earthquake Activity

City Distance Mag. Time & Date
Minimum magnitude displayed is 2.5.

Coastal Water Temperatures

Place Temperature

Stations

Nearby Weather Stations

Station Location Temp. Windchill Dew Point Humidity Wind Precip. Elev Updated Type
                   

Watches & Warnings

There are currently no watches in effect.